createdAt,value
2024-03-16T00:19:09.284Z,19.2
2024-03-16T00:39:08.958Z,19.2
2024-03-16T00:59:08.965Z,19.2
2024-03-16T01:39:08.862Z,19.1
2024-03-16T01:59:08.813Z,19.1
2024-03-16T02:19:08.789Z,19.1
2024-03-16T02:39:08.999Z,19.1
2024-03-16T02:59:08.985Z,19.1
2024-03-16T03:19:08.708Z,19.0
2024-03-16T03:39:08.972Z,19.0
2024-03-16T03:59:08.674Z,19.0
2024-03-16T04:19:08.711Z,19.0
2024-03-16T04:39:08.608Z,19.0
2024-03-16T04:59:08.571Z,19.0
2024-03-16T05:19:08.856Z,19.1
2024-03-16T05:39:08.627Z,19.3
2024-03-16T05:59:08.882Z,19.4
2024-03-16T06:19:08.459Z,19.5
2024-03-16T06:39:08.474Z,19.6
2024-03-16T06:59:08.431Z,19.7
2024-03-16T07:19:08.438Z,19.9
2024-03-16T07:39:08.399Z,19.9
2024-03-16T07:59:08.380Z,20.0
2024-03-16T08:19:08.323Z,20.0
2024-03-16T08:39:08.321Z,20.0
2024-03-16T08:59:08.297Z,20.1
2024-03-16T09:19:08.263Z,20.1
2024-03-16T09:39:08.255Z,20.1
2024-03-16T09:59:08.213Z,20.1
2024-03-16T10:19:08.172Z,20.1
2024-03-16T10:39:08.133Z,20.1
2024-03-16T10:59:08.139Z,20.1
2024-03-16T11:19:08.440Z,20.1
2024-03-16T11:39:08.085Z,20.1
2024-03-16T11:59:08.190Z,20.1
2024-03-16T12:19:08.041Z,20.1
2024-03-16T12:39:08.186Z,20.1
2024-03-16T12:59:08.307Z,20.1
2024-03-16T13:19:08.277Z,20.2
2024-03-16T13:39:08.294Z,20.2
2024-03-16T13:59:08.037Z,20.3
2024-03-16T14:19:08.017Z,20.3
2024-03-16T14:39:08.131Z,20.3
2024-03-16T14:59:08.151Z,20.3
2024-03-16T15:19:07.869Z,20.4
2024-03-16T15:39:07.971Z,20.4
2024-03-16T15:59:07.747Z,20.4
2024-03-16T16:19:07.713Z,20.4
2024-03-16T16:39:07.919Z,20.4
2024-03-16T16:59:07.668Z,20.4
2024-03-16T17:19:07.633Z,20.4
2024-03-16T17:39:07.606Z,20.5
2024-03-16T17:59:07.577Z,20.5
2024-03-16T18:19:07.563Z,20.5
2024-03-16T18:39:07.527Z,20.5
2024-03-16T18:59:07.516Z,20.6
2024-03-16T19:19:07.460Z,20.6
2024-03-16T19:39:07.455Z,20.6
2024-03-16T19:59:07.473Z,20.5
2024-03-16T20:19:07.428Z,20.4
2024-03-16T20:39:07.397Z,20.3
2024-03-16T20:59:07.330Z,20.2
2024-03-16T21:19:07.344Z,20.1
2024-03-16T21:39:07.321Z,20.1
2024-03-16T21:59:07.321Z,20.0
2024-03-16T22:19:07.249Z,19.9
2024-03-16T22:39:07.252Z,19.8
2024-03-16T22:59:07.241Z,19.8
2024-03-16T23:19:07.203Z,19.7
2024-03-16T23:39:07.181Z,19.6
2024-03-16T23:59:07.111Z,19.5
